<?xml version="1.0" encoding="UTF-8" standalone="no" ?>
<gpx xmlns="http://www.topografix.com/GPX/1/1" xmlns:xsi="http://www.w3.org/2001/XMLSchema-instance" xsi:schemaLocation="http://www.topografix.com/GPX/1/1 http://www.topografix.com/GPX/1/1/gpx.xsd" version="1.1" creator="VisuGPX - https://www.visugpx.com">
  <metadata>
    <name>Montflanquin Gravel</name>
    <desc><![CDATA[Hors asphalte gravel OK (testé avec Diverge 4, pneus 50mm)]]></desc>
  </metadata>
  <wpt lat="44.5662" lon="0.73317">
    <ele>120.6</ele>
    <name><![CDATA[David haut/bas]]></name>
  </wpt>
  <wpt lat="44.55013" lon="0.85946">
    <ele>126.4</ele>
  </wpt>
  <trk>
    <name><![CDATA[Montflanquin Gravel_16]]></name>
    <trkseg>
      <trkpt lat="44.63554" lon="0.83846">
        <ele>193.6</ele>
        <time>2026-08-23T08:24:45Z</time>
      </trkpt>
      <trkpt lat="44.63539" lon="0.83631">
        <ele>198.6</ele>
        <time>2026-08-23T08:25:17Z</time>
      </trkpt>
      <trkpt lat="44.63556" lon="0.83455">
        <ele>194.8</ele>
        <time>2026-08-23T08:25:33Z</time>
      </trkpt>
      <trkpt lat="44.63555" lon="0.83408">
        <ele>193.2</ele>
        <time>2026-08-23T08:25:37Z</time>
      </trkpt>
      <trkpt lat="44.63528" lon="0.83253">
        <ele>187.6</ele>
        <time>2026-08-23T08:25:49Z</time>
      </trkpt>
      <trkpt lat="44.6351" lon="0.83206">
        <ele>185</ele>
        <time>2026-08-23T08:25:53Z</time>
      </trkpt>
      <trkpt lat="44.63409" lon="0.8301">
        <ele>176</ele>
        <time>2026-08-23T08:26:09Z</time>
      </trkpt>
      <trkpt lat="44.63369" lon="0.82914">
        <ele>174.2</ele>
        <time>2026-08-23T08:26:17Z</time>
      </trkpt>
      <trkpt lat="44.63287" lon="0.82788">
        <ele>173.8</ele>
        <time>2026-08-23T08:26:33Z</time>
      </trkpt>
      <trkpt lat="44.63207" lon="0.82683">
        <ele>172.2</ele>
        <time>2026-08-23T08:26:49Z</time>
      </trkpt>
      <trkpt lat="44.63168" lon="0.82625">
        <ele>171.6</ele>
        <time>2026-08-23T08:26:57Z</time>
      </trkpt>
      <trkpt lat="44.63137" lon="0.82561">
        <ele>171.6</ele>
        <time>2026-08-23T08:27:05Z</time>
      </trkpt>
      <trkpt lat="44.6311" lon="0.82494">
        <ele>171.6</ele>
        <time>2026-08-23T08:27:13Z</time>
      </trkpt>
      <trkpt lat="44.63035" lon="0.82242">
        <ele>167.2</ele>
        <time>2026-08-23T08:27:37Z</time>
      </trkpt>
      <trkpt lat="44.62931" lon="0.82022">
        <ele>163.8</ele>
        <time>2026-08-23T08:28:01Z</time>
      </trkpt>
      <trkpt lat="44.62858" lon="0.81906">
        <ele>163.6</ele>
        <time>2026-08-23T08:28:17Z</time>
      </trkpt>
      <trkpt lat="44.62699" lon="0.81684">
        <ele>168.8</ele>
        <time>2026-08-23T08:28:57Z</time>
      </trkpt>
      <trkpt lat="44.62629" lon="0.81486">
        <ele>168.6</ele>
        <time>2026-08-23T08:29:21Z</time>
      </trkpt>
      <trkpt lat="44.62489" lon="0.81269">
        <ele>166.6</ele>
        <time>2026-08-23T08:29:53Z</time>
      </trkpt>
      <trkpt lat="44.62477" lon="0.81238">
        <ele>166.6</ele>
        <time>2026-08-23T08:29:57Z</time>
      </trkpt>
      <trkpt lat="44.62464" lon="0.81169">
        <ele>166.6</ele>
        <time>2026-08-23T08:30:05Z</time>
      </trkpt>
      <trkpt lat="44.6245" lon="0.81034">
        <ele>168</ele>
        <time>2026-08-23T08:30:21Z</time>
      </trkpt>
      <trkpt lat="44.62449" lon="0.80964">
        <ele>168.2</ele>
        <time>2026-08-23T08:30:29Z</time>
      </trkpt>
      <trkpt lat="44.62461" lon="0.80835">
        <ele>169.8</ele>
        <time>2026-08-23T08:30:45Z</time>
      </trkpt>
      <trkpt lat="44.62431" lon="0.80545">
        <ele>172.2</ele>
        <time>2026-08-23T08:31:25Z</time>
      </trkpt>
      <trkpt lat="44.62439" lon="0.80472">
        <ele>170.8</ele>
        <time>2026-08-23T08:31:33Z</time>
      </trkpt>
      <trkpt lat="44.62441" lon="0.80392">
        <ele>169.6</ele>
        <time>2026-08-23T08:31:41Z</time>
      </trkpt>
      <trkpt lat="44.62427" lon="0.80324">
        <ele>169.4</ele>
        <time>2026-08-23T08:31:49Z</time>
      </trkpt>
      <trkpt lat="44.62312" lon="0.79927">
        <ele>166.2</ele>
        <time>2026-08-23T08:32:37Z</time>
      </trkpt>
      <trkpt lat="44.62249" lon="0.79825">
        <ele>166.2</ele>
        <time>2026-08-23T08:32:53Z</time>
      </trkpt>
      <trkpt lat="44.62215" lon="0.79779">
        <ele>166.2</ele>
        <time>2026-08-23T08:33:01Z</time>
      </trkpt>
      <trkpt lat="44.6216" lon="0.79729">
        <ele>167.6</ele>
        <time>2026-08-23T08:33:17Z</time>
      </trkpt>
      <trkpt lat="44.62132" lon="0.79693">
        <ele>168</ele>
        <time>2026-08-23T08:33:25Z</time>
      </trkpt>
      <trkpt lat="44.62075" lon="0.79603">
        <ele>168.4</ele>
        <time>2026-08-23T08:33:41Z</time>
      </trkpt>
      <trkpt lat="44.62048" lon="0.79554">
        <ele>168.8</ele>
        <time>2026-08-23T08:33:49Z</time>
      </trkpt>
      <trkpt lat="44.61974" lon="0.79442">
        <ele>166.6</ele>
        <time>2026-08-23T08:34:05Z</time>
      </trkpt>
      <trkpt lat="44.61935" lon="0.79374">
        <ele>164</ele>
        <time>2026-08-23T08:34:13Z</time>
      </trkpt>
      <trkpt lat="44.61875" lon="0.79167">
        <ele>164</ele>
        <time>2026-08-23T08:34:37Z</time>
      </trkpt>
      <trkpt lat="44.61863" lon="0.79139">
        <ele>163.4</ele>
        <time>2026-08-23T08:34:41Z</time>
      </trkpt>
      <trkpt lat="44.61866" lon="0.79117">
        <ele>162.4</ele>
        <time>2026-08-23T08:34:45Z</time>
      </trkpt>
      <trkpt lat="44.61882" lon="0.79082">
        <ele>160.6</ele>
        <time>2026-08-23T08:34:53Z</time>
      </trkpt>
      <trkpt lat="44.6187" lon="0.79051">
        <ele>158.8</ele>
        <time>2026-08-23T08:35:01Z</time>
      </trkpt>
      <trkpt lat="44.61836" lon="0.78987">
        <ele>151.6</ele>
        <time>2026-08-23T08:35:09Z</time>
      </trkpt>
      <trkpt lat="44.61818" lon="0.78923">
        <ele>151.2</ele>
        <time>2026-08-23T08:35:25Z</time>
      </trkpt>
      <trkpt lat="44.61749" lon="0.78761">
        <ele>163.6</ele>
        <time>2026-08-23T08:48:50Z</time>
      </trkpt>
      <trkpt lat="44.61748" lon="0.78749">
        <ele>164.8</ele>
        <time>2026-08-23T08:48:54Z</time>
      </trkpt>
      <trkpt lat="44.61793" lon="0.78681">
        <ele>166.6</ele>
        <time>2026-08-23T08:49:18Z</time>
      </trkpt>
      <trkpt lat="44.61809" lon="0.78646">
        <ele>165.8</ele>
        <time>2026-08-23T08:49:26Z</time>
      </trkpt>
      <trkpt lat="44.61877" lon="0.78366">
        <ele>157.8</ele>
        <time>2026-08-23T08:50:06Z</time>
      </trkpt>
      <trkpt lat="44.61889" lon="0.7829">
        <ele>154.6</ele>
        <time>2026-08-23T08:50:14Z</time>
      </trkpt>
      <trkpt lat="44.61854" lon="0.78148">
        <ele>153.2</ele>
        <time>2026-08-23T08:50:53Z</time>
      </trkpt>
      <trkpt lat="44.6183" lon="0.78099">
        <ele>151.4</ele>
        <time>2026-08-23T08:51:01Z</time>
      </trkpt>
      <trkpt lat="44.61827" lon="0.7808">
        <ele>151</ele>
        <time>2026-08-23T08:51:03Z</time>
      </trkpt>
      <trkpt lat="44.61832" lon="0.7804">
        <ele>149.8</ele>
        <time>2026-08-23T08:51:07Z</time>
      </trkpt>
      <trkpt lat="44.61882" lon="0.77913">
        <ele>149.6</ele>
        <time>2026-08-23T08:51:23Z</time>
      </trkpt>
      <trkpt lat="44.61904" lon="0.77798">
        <ele>151.6</ele>
        <time>2026-08-23T08:51:39Z</time>
      </trkpt>
      <trkpt lat="44.61917" lon="0.77686">
        <ele>152.4</ele>
        <time>2026-08-23T08:51:55Z</time>
      </trkpt>
      <trkpt lat="44.61915" lon="0.77663">
        <ele>152.6</ele>
        <time>2026-08-23T08:51:59Z</time>
      </trkpt>
    </trkseg>
  </trk>
</gpx>